createdAt,value
2022-09-17T00:04:26.077Z,9.89
2022-09-17T00:24:28.501Z,9.92
2022-09-17T00:44:30.946Z,9.31
2022-09-17T01:04:33.424Z,8.80
2022-09-17T01:24:35.846Z,8.42
2022-09-17T01:44:38.265Z,8.29
2022-09-17T02:04:40.690Z,7.98
2022-09-17T02:24:43.108Z,7.94
2022-09-17T02:44:45.501Z,7.69
2022-09-17T03:04:48.106Z,7.63
2022-09-17T03:24:50.556Z,7.64
2022-09-17T03:44:52.978Z,7.41
2022-09-17T04:04:55.692Z,7.35
2022-09-17T04:24:58.125Z,7.07
2022-09-17T04:45:00.828Z,7.03
2022-09-17T05:05:03.229Z,7.31
2022-09-17T05:25:05.702Z,7.99
2022-09-17T05:45:08.258Z,9.71
2022-09-17T06:05:10.682Z,10.38
2022-09-17T06:25:13.418Z,11.74
2022-09-17T06:45:16.890Z,12.36
2022-09-17T07:05:19.546Z,12.70
2022-09-17T07:25:21.943Z,13.29
2022-09-17T07:45:24.569Z,13.63
2022-09-17T08:05:27.012Z,14.01
2022-09-17T08:25:29.434Z,14.59
2022-09-17T08:45:31.873Z,14.52
2022-09-17T09:05:34.672Z,15.08
2022-09-17T09:25:37.118Z,15.75
2022-09-17T09:45:39.501Z,15.84
2022-09-17T10:05:41.962Z,15.65
2022-09-17T10:25:47.547Z,15.78
2022-09-17T10:45:49.972Z,16.29
2022-09-17T11:05:52.651Z,16.41
2022-09-17T11:25:59.740Z,15.35
2022-09-17T11:46:03.065Z,16.56
2022-09-17T12:06:05.505Z,15.27
2022-09-17T12:26:07.974Z,16.69
2022-09-17T12:46:10.642Z,16.11
2022-09-17T13:06:13.130Z,16.35
2022-09-17T13:26:18.475Z,16.20
2022-09-17T13:46:21.015Z,16.65
2022-09-17T14:06:23.902Z,16.76
2022-09-17T14:26:26.340Z,16.86
2022-09-17T14:46:28.824Z,15.92
2022-09-17T15:06:31.266Z,15.99
2022-09-17T15:26:33.693Z,15.01
2022-09-17T15:46:36.141Z,14.80
2022-09-17T16:06:38.638Z,14.50
2022-09-17T17:28:29.763Z,12.93
